Startpagina
METAR-TAF:

METAR-TAF

Vliegvelden :

Peer, België

Vliegbasis Kleine-Brogel

breedte: 51-10N, lengte: 005-28E, hoogte: 55 m

Actueel weer

Dit bericht is 33 minuten geleden gemaakt, om 07:55 UTC
Wind 5 kt uit het zuidzuidwesten
Temperatuur 21°C
Vochtigheid 56%
Druk 1013 hPa
Zicht 10 km of meer

METAR: EBBL 220755Z AUTO 21005KT 9999 NCD 21/12 Q1013 BLU

Tijdstip: 10:28 (08:28 UTC)

Verwachting

Dit bericht is 16 uur en het 47 minuten geleden gemaakt, om 15:41 UTC
Verwachting geldig van 21 om 19 UTC tot 22 om 07 UTC
Wind 5 kt uit het oosten
Zicht 10 km of meer
Verspreide wolken op 27000 ft
Wijzigt naar
van 21 om 23 UTC tot 22 om 01 UTC
Zicht: 6000 m
Tijdelijke
van 21 om 01 UTC tot 21 om 06 UTC
Zicht: 3000 m
nevel

TAF: EBBL 211541Z 2119/2207 08005KT 9999 SCT270 BECMG 2123/2201 6000 TEMPO 2101/2106 3000 BR

Waarnemingen en weersverwachtingen van meer dan 4000 vliegvelden (METAR en TAF).

De beschikbare stations zijn de gele en rode punten op de kaart.

Ga met uw muis naar het station om de naam te zien.

Klik dan om waarnemingen en weersverwachtingen te zien.

kaart wijzigen: klik op de groene knoppen met een zwart kruis om in te zoomen, op de groene knop met een streepje om uit te zoomen of op de groene pijlen voor aangrenzende kaarten.


METAR-TAF: